Time;durP1;ratioP1;P1;durP2;ratioP2;P2;SDS_P1;SDS_P2;PMS_P1;PMS_P2;Temp;Humidity;BMP_temperature;BMP_pressure;BME280_temperature;BME280_humidity;BME280_pressure;Samples;Min_cycle;Max_cycle;Signal;HPM_P1;HPM_P2
2022/01/17 00:00:42;;;;;;;12.60;7.70;;;;;;;5.71;70.09;102215.13;4910646;29;20044;-88
2022/01/17 00:03:30;;;;;;;10.75;7.05;;;;;;;5.75;70.35;102244.88;4932405;29;20054;-91
2022/01/17 00:05:56;;;;;;;12.95;7.18;;;;;;;5.90;69.56;102247.28;4936787;29;20043;-89
2022/01/17 00:08:21;;;;;;;10.98;6.95;;;;;;;5.61;70.19;102235.75;4925952;29;20178;-88
2022/01/17 00:10:51;;;;;;;9.98;6.90;;;;;;;5.74;70.09;102246.56;4907707;29;20040;-90
2022/01/17 00:13:28;;;;;;;11.60;7.13;;;;;;;5.49;70.10;102199.22;4885937;29;20084;-88
2022/01/17 00:16:04;;;;;;;10.98;7.13;;;;;;;5.66;70.66;102255.25;4910594;29;20031;-89
2022/01/17 00:21:18;;;;;;;10.48;6.78;;;;;;;5.48;70.08;102207.72;4920062;29;20508;-89
2022/01/17 00:23:49;;;;;;;12.15;7.60;;;;;;;5.77;70.60;102246.84;4904045;29;20035;-90
2022/01/17 00:26:17;;;;;;;11.30;7.53;;;;;;;5.41;70.45;102198.44;4901188;29;20043;-90
2022/01/17 00:29:20;;;;;;;10.50;6.55;;;;;;;5.72;70.44;102236.03;4920673;29;20043;-90
2022/01/17 00:31:48;;;;;;;10.60;6.65;;;;;;;5.70;70.17;102229.78;4936508;29;20027;-90
2022/01/17 00:34:24;;;;;;;10.95;6.80;;;;;;;5.47;70.51;102208.50;4903843;29;20070;-90
2022/01/17 00:36:53;;;;;;;11.73;6.90;;;;;;;5.64;70.41;102216.22;4919501;29;20035;-89
2022/01/17 00:39:30;;;;;;;10.90;6.80;;;;;;;5.25;70.12;102153.72;4904000;29;20087;-90
2022/01/17 00:42:01;;;;;;;11.35;7.30;;;;;;;5.02;71.12;102149.78;4900510;29;20107;-91
2022/01/17 00:44:27;;;;;;;11.48;7.05;;;;;;;5.52;70.79;102204.66;4936276;29;20497;-90
2022/01/17 00:46:54;;;;;;;10.43;7.20;;;;;;;5.48;70.58;102181.81;4919268;29;20039;-89
2022/01/17 00:49:21;;;;;;;10.55;7.30;;;;;;;5.69;70.60;102216.66;4903680;29;20043;-90
2022/01/17 00:51:47;;;;;;;11.48;7.30;;;;;;;5.63;70.35;102208.28;4906719;29;20494;-89
2022/01/17 00:54:13;;;;;;;12.13;7.40;;;;;;;5.35;70.16;102160.66;4919793;29;20465;-90
2022/01/17 00:56:42;;;;;;;12.70;7.50;;;;;;;5.39;70.91;102165.38;4915623;29;20044;-89
2022/01/17 00:59:07;;;;;;;11.77;7.32;;;;;;;5.84;69.91;102191.31;4918773;29;20035;-89
2022/01/17 01:01:33;;;;;;;12.00;7.78;;;;;;;5.58;69.38;102162.91;4903276;29;20044;-89
2022/01/17 01:04:00;;;;;;;10.43;6.85;;;;;;;5.52;70.82;102194.31;4903418;29;20490;-87
2022/01/17 01:06:25;;;;;;;12.95;7.38;;;;;;;5.75;70.23;102185.25;4937145;29;20038;-87
2022/01/17 01:08:52;;;;;;;11.87;7.20;;;;;;;5.47;70.57;102155.00;4905831;29;20040;-88
2022/01/17 01:11:17;;;;;;;12.27;7.47;;;;;;;5.77;69.87;102174.25;4919354;29;20283;-88
2022/01/17 01:13:43;;;;;;;11.98;6.75;;;;;;;5.63;70.16;102166.84;4902901;29;20413;-87
2022/01/17 01:18:50;;;;;;;9.93;7.05;;;;;;;5.62;70.12;102160.75;4900000;29;20032;-88
2022/01/17 01:29:55;;;;;;;11.50;7.63;;;;;;;5.55;70.04;102106.53;4895333;29;20056;-88
2022/01/17 01:32:25;;;;;;;12.75;7.10;;;;;;;5.40;69.95;102094.69;4893407;29;20105;-88
2022/01/17 01:34:55;;;;;;;11.02;6.78;;;;;;;5.36;70.46;102102.94;4898953;29;20048;-87
2022/01/17 01:37:21;;;;;;;12.07;6.90;;;;;;;5.25;70.90;102101.91;4913460;29;20481;-88
2022/01/17 01:39:49;;;;;;;11.90;7.60;;;;;;;5.22;70.08;102071.41;4917810;29;20063;-87
2022/01/17 01:45:37;;;;;;;11.93;6.72;;;;;;;5.23;70.85;102064.59;4935405;29;20123;-90
2022/01/17 01:48:19;;;;;;;13.55;7.07;;;;;;;5.57;70.27;102084.25;4918580;29;20083;-89
2022/01/17 01:50:52;;;;;;;12.75;7.05;;;;;;;5.13;71.23;102047.25;4900061;29;20134;-89
2022/01/17 01:53:18;;;;;;;10.68;6.70;;;;;;;5.60;69.59;102061.22;4906116;29;20189;-91
2022/01/17 01:55:45;;;;;;;11.98;7.25;;;;;;;5.20;69.84;102022.84;4917355;29;20154;-89
2022/01/17 01:58:15;;;;;;;12.05;6.88;;;;;;;5.44;70.42;102076.06;4935108;29;20545;-87
2022/01/17 02:00:45;;;;;;;11.55;6.97;;;;;;;5.49;70.81;102073.16;4901073;29;20043;-89
2022/01/17 02:03:12;;;;;;;11.57;6.70;;;;;;;5.17;71.04;102033.81;4915227;29;20055;-89
2022/01/17 02:05:42;;;;;;;12.48;7.50;;;;;;;5.41;70.64;102079.28;4891050;29;20123;-89
2022/01/17 02:08:15;;;;;;;12.07;7.00;;;;;;;5.07;70.66;102024.25;4914818;29;20095;-88
2022/01/17 02:11:00;;;;;;;11.98;7.03;;;;;;;5.40;70.60;102069.69;4903927;29;20167;-89
2022/01/17 02:13:26;;;;;;;10.65;6.72;;;;;;;5.18;70.51;102025.28;4918469;29;20032;-90
2022/01/17 02:16:20;;;;;;;12.98;6.72;;;;;;;5.37;70.80;102063.31;4902493;29;20035;-89
2022/01/17 02:18:58;;;;;;;13.23;7.18;;;;;;;5.40;70.58;102042.91;4900419;29;20109;-90
2022/01/17 02:21:34;;;;;;;11.07;6.88;;;;;;;5.39;70.64;102067.84;4895771;29;20032;-89
2022/01/17 02:24:02;;;;;;;11.05;6.68;;;;;;;5.33;70.77;102069.84;4915053;29;20047;-90
2022/01/17 02:26:34;;;;;;;10.50;6.70;;;;;;;5.48;70.52;102070.41;4884499;29;20032;-90
2022/01/17 02:29:00;;;;;;;10.88;6.38;;;;;;;4.80;71.24;101988.84;4933781;29;20410;-89
2022/01/17 02:31:33;;;;;;;10.37;6.63;;;;;;;4.68;70.53;101935.94;4918128;29;20043;-90
2022/01/17 02:34:03;;;;;;;10.48;6.60;;;;;;;5.26;70.00;102019.16;4899326;29;20036;-89
2022/01/17 02:36:50;;;;;;;10.32;6.47;;;;;;;5.13;72.09;102060.19;4916085;29;20489;-89
2022/01/17 02:39:19;;;;;;;12.82;6.45;;;;;;;4.93;71.93;102010.75;4896846;29;20039;-89
2022/01/17 02:41:51;;;;;;;9.88;6.40;;;;;;;5.13;71.38;102034.28;4910430;29;20123;-89
2022/01/17 02:45:08;;;;;;;10.88;6.55;;;;;;;5.57;70.03;102037.63;4934882;29;20103;-90
2022/01/17 02:47:54;;;;;;;10.13;6.28;;;;;;;5.32;70.56;102034.38;4935151;29;20478;-91
2022/01/17 02:50:34;;;;;;;13.07;6.47;;;;;;;5.38;69.89;101996.09;4901788;29;20042;-89
2022/01/17 02:53:08;;;;;;;9.38;5.90;;;;;;;5.36;70.87;102020.06;4902263;29;20047;-88
2022/01/17 02:55:37;;;;;;;9.20;5.95;;;;;;;5.25;70.90;102024.22;4918222;29;20043;-89
2022/01/17 02:58:03;;;;;;;10.40;6.32;;;;;;;5.33;70.37;102025.81;4917468;29;20032;-90
2022/01/17 03:00:32;;;;;;;9.88;6.38;;;;;;;5.20;71.28;102020.25;4898568;29;20556;-93
2022/01/17 03:03:05;;;;;;;9.57;6.03;;;;;;;5.20;70.31;101974.53;4927958;29;20048;-91
2022/01/17 03:05:33;;;;;;;9.35;6.50;;;;;;;5.35;70.46;101995.81;4893324;29;20025;-91
2022/01/17 03:11:24;;;;;;;11.50;5.82;;;;;;;4.97;71.50;101995.66;4937453;29;20083;-89
2022/01/17 03:13:51;;;;;;;11.43;6.88;;;;;;;5.15;70.96;102006.88;4941487;29;20030;-87
2022/01/17 03:16:34;;;;;;;9.80;6.22;;;;;;;5.22;70.78;102003.19;4911859;29;20032;-88
2022/01/17 03:19:38;;;;;;;9.85;5.97;;;;;;;5.16;70.92;102000.91;4901716;29;20058;-91
2022/01/17 03:22:03;;;;;;;11.02;6.00;;;;;;;5.26;70.60;101998.44;4941155;29;20040;-89
2022/01/17 03:24:29;;;;;;;11.65;6.30;;;;;;;4.94;70.62;101966.00;4893742;29;20043;-90
2022/01/17 03:26:56;;;;;;;9.82;5.80;;;;;;;4.78;70.93;101930.84;4922630;29;20508;-88
2022/01/17 03:29:21;;;;;;;8.98;5.72;;;;;;;4.88;71.13;101953.38;4905968;29;20099;-89
2022/01/17 03:31:53;;;;;;;12.00;5.85;;;;;;;5.13;71.20;101961.78;4920694;29;20031;-90
2022/01/17 03:34:20;;;;;;;11.45;6.13;;;;;;;4.85;70.38;101902.22;4905509;29;20114;-91
2022/01/17 03:37:10;;;;;;;9.30;6.20;;;;;;;5.12;71.18;101975.50;4904689;29;20119;-91
2022/01/17 03:39:38;;;;;;;10.95;5.97;;;;;;;4.98;71.18;101965.53;4920691;29;20039;-88
2022/01/17 03:42:04;;;;;;;9.90;5.88;;;;;;;5.07;70.91;101954.34;4919576;29;20054;-88
2022/01/17 03:44:31;;;;;;;9.50;5.40;;;;;;;5.06;71.00;101959.41;4919483;29;20039;-87
2022/01/17 03:46:58;;;;;;;9.57;5.68;;;;;;;5.02;71.48;101957.28;4937275;29;20027;-88
2022/01/17 03:49:24;;;;;;;9.80;5.95;;;;;;;4.93;71.54;101946.03;4919906;29;20050;-86
2022/01/17 03:51:50;;;;;;;9.48;6.00;;;;;;;4.63;71.66;101888.00;4901712;29;20032;-87
2022/01/17 03:54:16;;;;;;;9.00;6.03;;;;;;;4.90;71.24;101924.28;4904615;29;20027;-90
2022/01/17 03:56:51;;;;;;;10.18;5.72;;;;;;;4.86;71.27;101918.66;4920562;29;20280;-90
2022/01/17 03:59:22;;;;;;;10.23;5.68;;;;;;;5.06;71.23;101965.47;4905197;29;20063;-91
2022/01/17 04:01:48;;;;;;;8.88;5.65;;;;;;;4.76;71.61;101932.38;4920669;29;20106;-89
2022/01/17 04:04:13;;;;;;;10.18;5.82;;;;;;;5.29;70.77;101966.72;4937430;29;20660;-88
2022/01/17 04:06:43;;;;;;;10.40;5.93;;;;;;;4.86;71.25;101934.19;4886868;29;20509;-89
2022/01/17 04:09:12;;;;;;;8.90;5.75;;;;;;;4.83;71.38;101918.38;4901407;29;20497;-89
2022/01/17 04:11:38;;;;;;;9.57;6.13;;;;;;;4.60;71.14;101891.22;4903266;29;20518;-90
2022/01/17 04:14:09;;;;;;;9.65;6.15;;;;;;;4.94;72.07;101964.31;4899360;29;20040;-90
2022/01/17 04:16:43;;;;;;;9.35;5.80;;;;;;;5.05;71.39;101965.31;4910431;29;20032;-90
2022/01/17 04:19:17;;;;;;;8.98;5.68;;;;;;;4.75;71.82;101934.84;4920029;29;20036;-90
2022/01/17 04:21:47;;;;;;;9.02;5.53;;;;;;;4.95;71.79;101957.44;4920841;29;20042;-89
2022/01/17 04:24:18;;;;;;;9.35;5.55;;;;;;;4.98;71.66;101962.94;4904158;29;20039;-88
2022/01/17 04:26:54;;;;;;;9.93;6.07;;;;;;;4.98;71.20;101952.59;4903553;29;20036;-89
2022/01/17 04:29:20;;;;;;;11.55;5.38;;;;;;;4.73;71.31;101928.63;4919726;29;20039;-88
2022/01/17 04:31:57;;;;;;;11.68;5.85;;;;;;;4.89;71.52;101971.63;4900881;29;20118;-89
2022/01/17 04:34:26;;;;;;;10.10;5.63;;;;;;;4.92;71.81;101960.66;4902140;29;20036;-87
2022/01/17 04:37:02;;;;;;;9.13;5.78;;;;;;;4.93;71.99;101970.22;4919934;29;20452;-90
2022/01/17 04:39:38;;;;;;;9.93;5.93;;;;;;;5.03;71.64;101977.22;4900964;29;20115;-90
2022/01/17 04:42:17;;;;;;;9.25;5.32;;;;;;;5.05;71.13;101966.22;4919400;29;20059;-89
2022/01/17 04:47:31;;;;;;;9.63;6.00;;;;;;;4.64;71.98;101916.63;4936784;29;20512;-91
2022/01/17 04:50:11;;;;;;;11.32;5.75;;;;;;;4.14;71.35;101801.44;4887236;29;20506;-92
2022/01/17 04:52:38;;;;;;;10.20;5.80;;;;;;;4.91;72.05;101951.09;4885336;29;20024;-89
2022/01/17 04:55:11;;;;;;;9.20;5.95;;;;;;;4.34;71.87;101864.50;4891165;29;20023;-89
2022/01/17 04:57:43;;;;;;;9.52;5.63;;;;;;;4.77;71.80;101916.09;4918884;29;20095;-90
2022/01/17 05:00:13;;;;;;;10.25;5.40;;;;;;;4.90;72.27;101944.06;4919326;29;20119;-90
2022/01/17 05:02:39;;;;;;;9.40;5.47;;;;;;;4.98;71.49;101947.41;4896142;29;20037;-88
2022/01/17 05:05:27;;;;;;;;;;;;;;;5.00;71.29;101948.47;4909782;29;20497;-90
2022/01/17 05:08:00;;;;;;;9.90;5.55;;;;;;;4.78;72.07;101929.94;4914094;29;19927;-88
2022/01/17 05:11:08;;;;;;;8.77;5.68;;;;;;;4.88;72.06;101938.75;4892966;29;20096;-93
2022/01/17 05:13:36;;;;;;;9.38;5.82;;;;;;;4.69;72.14;101893.75;4919133;29;20044;-86
2022/01/17 05:16:13;;;;;;;9.68;5.70;;;;;;;4.84;72.10;101935.72;4903171;29;20138;-88
2022/01/17 05:21:06;;;;;;;8.65;5.57;;;;;;;4.75;71.76;101909.88;4918653;29;20046;-84
2022/01/17 05:23:48;;;;;;;9.90;5.78;;;;;;;4.74;71.38;101905.47;4919482;29;20031;-88
2022/01/17 05:26:51;;;;;;;10.52;6.15;;;;;;;4.83;71.92;101942.56;4899547;29;20066;-89
2022/01/17 05:29:35;;;;;;;10.55;6.05;;;;;;;4.84;72.05;101934.03;4934281;29;20035;-91
2022/01/17 05:32:21;;;;;;;10.40;5.53;;;;;;;4.95;71.62;101941.91;4884628;29;20039;-91
2022/01/17 05:35:03;;;;;;;8.45;5.57;;;;;;;4.74;71.86;101912.31;4917522;29;20504;-91
2022/01/17 05:37:32;;;;;;;9.48;5.57;;;;;;;4.83;71.80;101937.41;4918993;29;20043;-92
2022/01/17 05:39:57;;;;;;;9.45;6.10;;;;;;;4.66;72.42;101924.53;4902172;29;20474;-89
2022/01/17 05:42:24;;;;;;;10.50;5.85;;;;;;;4.75;71.45;101902.13;4918478;29;20110;-86
2022/01/17 05:44:51;;;;;;;9.85;5.57;;;;;;;5.07;71.03;101938.81;4917524;29;20118;-89
2022/01/17 05:47:17;;;;;;;10.40;6.03;;;;;;;4.87;72.11;101942.09;4918179;29;20034;-89
2022/01/17 05:49:43;;;;;;;10.15;6.30;;;;;;;4.72;71.61;101912.19;4917842;29;20032;-87
2022/01/17 05:52:09;;;;;;;11.85;6.25;;;;;;;4.75;71.95;101909.88;4888992;29;20107;-89
2022/01/17 05:54:47;;;;;;;10.48;5.55;;;;;;;4.69;71.82;101899.84;4901874;29;20028;-86
2022/01/17 05:57:24;;;;;;;8.77;6.32;;;;;;;4.75;71.31;101891.75;4917400;29;20497;-89
2022/01/17 05:59:58;;;;;;;10.77;6.35;;;;;;;4.57;71.87;101887.41;4917987;29;20043;-92
2022/01/17 06:02:24;;;;;;;10.38;6.00;;;;;;;4.80;72.02;101926.75;4896432;29;20490;-92
2022/01/17 06:04:54;;;;;;;10.82;5.78;;;;;;;4.78;71.94;101923.09;4911909;29;20047;-89
2022/01/17 06:07:20;;;;;;;10.88;6.15;;;;;;;4.35;72.51;101874.09;4932388;29;20103;-92
2022/01/17 06:10:08;;;;;;;8.95;5.65;;;;;;;4.76;71.92;101918.53;4907757;29;20032;-91
2022/01/17 06:12:53;;;;;;;9.95;5.68;;;;;;;4.79;72.09;101916.25;4945236;29;20016;-92
2022/01/17 06:15:19;;;;;;;10.85;6.28;;;;;;;4.70;71.94;101890.44;4939529;29;20113;-87
2022/01/17 06:17:45;;;;;;;10.00;6.07;;;;;;;4.62;72.16;101894.84;4954415;29;20067;-84
2022/01/17 06:20:11;;;;;;;9.15;5.57;;;;;;;4.92;71.32;101895.94;4913888;29;20031;-85
2022/01/17 06:22:48;;;;;;;10.52;6.22;;;;;;;4.88;71.50;101897.31;4936038;29;20027;-92
2022/01/17 06:25:40;;;;;;;11.60;6.78;;;;;;;4.92;71.64;101900.22;4889020;29;20123;-90
2022/01/17 06:31:44;;;;;;;10.00;5.90;;;;;;;4.72;72.01;101895.72;4933743;29;20058;-91
2022/01/17 06:34:41;;;;;;;10.60;6.20;;;;;;;4.71;72.25;101897.41;4919627;29;20031;-92
2022/01/17 06:37:18;;;;;;;10.30;6.18;;;;;;;4.64;72.62;101890.75;4919024;29;20043;-90
2022/01/17 06:39:57;;;;;;;11.20;6.38;;;;;;;4.84;71.66;101889.13;4904844;29;20050;-91
2022/01/17 06:42:25;;;;;;;9.77;6.35;;;;;;;4.67;71.48;101844.44;4938359;29;20084;-90
2022/01/17 06:44:53;;;;;;;10.75;6.53;;;;;;;4.72;71.77;101881.13;4906514;29;20039;-92
2022/01/17 06:48:11;;;;;;;11.95;6.80;;;;;;;4.90;71.31;101889.72;4938618;29;20504;-90
2022/01/17 06:51:08;;;;;;;9.25;5.97;;;;;;;4.72;71.71;101885.38;4931179;29;20482;-91
2022/01/17 06:53:44;;;;;;;10.35;6.20;;;;;;;4.69;72.00;101870.47;4920558;29;20036;-90
2022/01/17 06:56:11;;;;;;;7.75;4.70;;;;;;;4.69;72.09;101866.22;4897512;29;20383;-90
2022/01/17 06:58:37;;;;;;;9.90;6.05;;;;;;;4.73;72.06;101867.41;4907120;29;20023;-89
2022/01/17 07:01:05;;;;;;;;;;;;;;;4.80;72.31;101858.56;4886850;29;20039;-89
2022/01/17 07:04:20;;;;;;;10.65;6.10;;;;;;;4.79;71.75;101854.16;4902116;29;19923;-94
2022/01/17 07:06:58;;;;;;;10.55;6.50;;;;;;;4.44;71.61;101764.66;4920292;29;20159;-93
2022/01/17 07:09:30;;;;;;;11.77;6.93;;;;;;;4.45;71.78;101778.53;4903527;29;20039;-94
2022/01/17 07:12:06;;;;;;;11.65;6.32;;;;;;;4.74;72.16;101847.63;4917098;29;20485;-93
2022/01/17 07:15:01;;;;;;;10.32;6.32;;;;;;;4.54;72.52;101844.06;4899734;29;20108;-93
2022/01/17 07:17:38;;;;;;;12.02;6.40;;;;;;;4.61;72.22;101825.75;4919286;29;20036;-91
2022/01/17 07:20:12;;;;;;;11.85;6.63;;;;;;;4.70;72.42;101828.34;4921234;29;20134;-94
2022/01/17 07:22:40;;;;;;;10.15;6.43;;;;;;;4.45;72.03;101794.97;4889655;29;20531;-93
2022/01/17 07:25:14;;;;;;;12.13;6.53;;;;;;;4.65;72.18;101812.34;4910185;29;20083;-93
2022/01/17 07:27:51;;;;;;;11.07;6.40;;;;;;;4.58;71.82;101783.19;4902204;29;20035;-93
2022/01/17 07:30:23;;;;;;;;;;;;;;;4.57;72.08;101797.81;4903630;29;20028;-94
2022/01/17 07:32:53;;;;;;;10.93;6.65;;;;;;;4.58;72.09;101791.84;4903033;29;19971;-94
2022/01/17 07:35:29;;;;;;;10.38;6.30;;;;;;;4.65;71.78;101791.66;4915919;29;20131;-92
2022/01/17 07:41:16;;;;;;;12.40;6.82;;;;;;;4.55;72.25;101768.31;4927858;29;20095;-93
2022/01/17 07:43:42;;;;;;;11.35;6.97;;;;;;;4.66;71.92;101761.53;4905504;29;20020;-92
2022/01/17 07:46:19;;;;;;;9.40;6.25;;;;;;;4.60;72.20;101741.16;4903610;29;20035;-92
2022/01/17 07:49:42;;;;;;;10.80;6.60;;;;;;;4.65;71.99;101750.25;4888079;29;20032;-92
2022/01/17 07:52:11;;;;;;;12.30;6.97;;;;;;;4.37;72.41;101740.69;4926404;29;20084;-90
2022/01/17 07:54:43;;;;;;;11.45;7.00;;;;;;;4.57;71.98;101753.84;4886315;29;20032;-90
2022/01/17 07:57:12;;;;;;;10.98;6.85;;;;;;;4.63;72.28;101797.44;4917998;29;20028;-89
2022/01/17 07:59:54;;;;;;;12.70;6.78;;;;;;;4.53;72.55;101830.97;4905651;29;20050;-92
2022/01/17 08:02:33;;;;;;;11.93;6.88;;;;;;;4.63;71.99;101846.59;4901687;29;20080;-93
2022/01/17 08:05:14;;;;;;;10.25;6.47;;;;;;;4.58;72.40;101869.47;4918025;29;20039;-92
2022/01/17 08:07:43;;;;;;;11.80;7.40;;;;;;;4.67;71.93;101903.97;4904048;29;20032;-91
2022/01/17 08:10:20;;;;;;;11.57;7.05;;;;;;;4.58;71.46;101890.16;4894462;29;20067;-91
2022/01/17 08:12:51;;;;;;;11.27;6.78;;;;;;;4.80;71.79;101916.38;4895752;29;20099;-92
2022/01/17 08:15:32;;;;;;;12.40;7.00;;;;;;;4.29;72.19;101844.28;4904628;29;20028;-91
2022/01/17 08:18:18;;;;;;;11.82;7.07;;;;;;;4.55;72.57;101900.22;4887856;29;20064;-92
2022/01/17 08:21:23;;;;;;;12.10;7.30;;;;;;;4.53;72.15;101880.13;4902043;29;20458;-91
2022/01/17 08:23:59;;;;;;;13.80;7.32;;;;;;;4.47;72.52;101876.19;4915900;29;20078;-92
2022/01/17 08:27:06;;;;;;;14.18;8.15;;;;;;;4.45;72.47;101884.56;4890819;29;20028;-93
2022/01/17 08:30:17;;;;;;;11.45;7.28;;;;;;;4.47;72.96;101875.28;4919052;29;20048;-90
2022/01/17 08:32:51;;;;;;;14.00;7.90;;;;;;;4.51;72.41;101841.19;4934860;29;20095;-91
2022/01/17 08:35:57;;;;;;;11.30;7.05;;;;;;;4.51;72.25;101806.63;4908148;29;20063;-91
2022/01/17 08:38:46;;;;;;;13.30;7.15;;;;;;;4.62;72.40;101793.06;4919945;29;20520;-91
2022/01/17 08:41:12;;;;;;;12.60;7.63;;;;;;;4.39;72.63;101783.13;4904242;29;20032;-91
2022/01/17 08:43:41;;;;;;;14.02;7.40;;;;;;;4.48;72.67;101761.59;4901272;29;20504;-90
2022/01/17 08:46:35;;;;;;;13.43;7.63;;;;;;;4.78;72.00;101741.06;4901439;29;20088;-91
2022/01/17 08:49:06;;;;;;;12.02;7.40;;;;;;;4.57;71.96;101704.69;4885469;29;20035;-92
2022/01/17 08:51:34;;;;;;;12.52;7.68;;;;;;;4.66;71.82;101708.09;4885729;29;20096;-90
2022/01/17 08:54:19;;;;;;;14.48;7.70;;;;;;;4.58;72.11;101726.28;4900912;29;20032;-90
2022/01/17 08:56:59;;;;;;;14.23;8.27;;;;;;;4.53;72.09;101714.56;4912899;29;20028;-91
2022/01/17 08:59:29;;;;;;;13.23;7.90;;;;;;;4.48;72.35;101716.75;4904140;29;20023;-91
2022/01/17 09:02:12;;;;;;;14.00;7.72;;;;;;;4.11;72.01;101617.66;4904435;29;20040;-92
2022/01/17 09:05:11;;;;;;;13.07;7.82;;;;;;;4.59;72.31;101671.19;4919320;29;20119;-91
2022/01/17 09:07:58;;;;;;;14.05;7.75;;;;;;;4.72;71.96;101648.28;4919731;29;20130;-91
2022/01/17 09:13:28;;;;;;;12.98;7.90;;;;;;;4.53;71.95;101648.25;4947813;29;19923;-92
2022/01/17 09:15:54;;;;;;;13.45;7.85;;;;;;;4.66;72.07;101664.13;4944449;29;20019;-92
2022/01/17 09:18:24;;;;;;;14.15;7.88;;;;;;;4.53;72.19;101635.31;4912609;29;20107;-92
2022/01/17 09:20:51;;;;;;;13.68;8.15;;;;;;;4.47;72.27;101630.50;4892961;29;20036;-92
2022/01/17 09:23:50;;;;;;;15.32;8.48;;;;;;;4.75;71.35;101652.81;4895704;29;20035;-92
2022/01/17 09:26:19;;;;;;;12.55;8.05;;;;;;;4.62;72.23;101654.25;4900298;29;20036;-91
2022/01/17 09:29:09;;;;;;;12.70;8.00;;;;;;;4.62;72.29;101651.69;4903440;29;20043;-94
2022/01/17 09:31:49;;;;;;;15.68;9.05;;;;;;;4.71;71.76;101642.94;4914566;29;20629;-93
2022/01/17 09:34:18;;;;;;;15.20;9.48;;;;;;;4.88;71.33;101641.09;4903294;29;20032;-91
2022/01/17 09:37:36;;;;;;;15.60;9.88;;;;;;;4.79;71.50;101637.69;4902767;29;20039;-92
2022/01/17 09:40:05;;;;;;;15.65;9.27;;;;;;;4.87;71.61;101630.66;4918965;29;20066;-92
2022/01/17 09:42:49;;;;;;;17.17;9.65;;;;;;;4.73;71.66;101612.94;4903538;29;20042;-91
2022/01/17 09:45:22;;;;;;;15.35;9.65;;;;;;;4.89;71.40;101606.72;4892150;29;20036;-91
2022/01/17 09:51:19;;;;;;;18.17;10.27;;;;;;;4.20;71.79;101503.84;4935873;29;20049;-91
2022/01/17 09:54:08;;;;;;;16.10;9.63;;;;;;;4.73;72.20;101612.94;4904334;29;20038;-90
2022/01/17 09:56:39;;;;;;;16.08;9.80;;;;;;;4.83;71.27;101613.91;4895060;29;20047;-91
2022/01/17 09:59:06;;;;;;;16.90;10.15;;;;;;;4.74;71.32;101588.88;4915267;29;20032;-91
2022/01/17 10:01:54;;;;;;;15.90;9.75;;;;;;;4.81;71.31;101620.63;4894800;29;20031;-91
2022/01/17 10:08:16;;;;;;;18.75;9.38;;;;;;;4.57;72.01;101588.28;4923943;29;20108;-91
2022/01/17 10:10:47;;;;;;;18.20;9.70;;;;;;;4.62;72.59;101593.88;4896584;29;20509;-91
2022/01/17 10:13:20;;;;;;;17.98;10.02;;;;;;;4.45;72.00;101551.84;4903480;29;20032;-92
2022/01/17 10:16:15;;;;;;;17.27;9.93;;;;;;;4.85;71.36;101555.44;4918418;29;20032;-94
2022/01/17 10:18:49;;;;;;;14.82;9.70;;;;;;;4.74;72.10;101552.66;4901646;29;20043;-93
2022/01/17 10:21:46;;;;;;;15.52;9.82;;;;;;;4.67;72.04;101539.16;4896562;29;20024;-92
2022/01/17 10:24:27;;;;;;;17.08;9.50;;;;;;;4.55;72.22;101529.41;4893280;29;20069;-92
2022/01/17 10:27:11;;;;;;;17.25;10.15;;;;;;;4.63;72.49;101524.13;4896672;29;20032;-92
2022/01/17 10:30:24;;;;;;;17.23;10.05;;;;;;;4.53;71.54;101471.44;4911903;29;20409;-90
2022/01/17 10:35:36;;;;;;;15.73;9.65;;;;;;;4.62;71.50;101441.25;4932544;29;20038;-91
2022/01/17 10:38:14;;;;;;;16.02;9.85;;;;;;;4.79;71.02;101481.53;4914766;29;20027;-91
2022/01/17 10:40:44;;;;;;;17.13;9.93;;;;;;;4.80;71.31;101465.22;4913430;29;20048;-92
2022/01/17 10:43:34;;;;;;;15.60;9.57;;;;;;;4.11;71.26;101360.84;4913845;29;20028;-90
2022/01/17 10:46:22;;;;;;;16.45;9.80;;;;;;;4.70;71.62;101468.72;4911925;29;20138;-92
2022/01/17 10:48:57;;;;;;;18.15;10.35;;;;;;;4.38;71.54;101396.94;4911904;29;20501;-91
2022/01/17 10:51:29;;;;;;;18.08;10.40;;;;;;;4.54;71.35;101442.25;4912242;29;20122;-91
2022/01/17 10:54:17;;;;;;;16.52;10.13;;;;;;;4.68;72.23;101475.41;4925044;29;20038;-91
2022/01/17 10:56:56;;;;;;;;;;;;;;;5.07;70.34;101470.22;4919577;29;20039;-91
2022/01/17 10:59:42;;;;;;;20.20;10.80;;;;;;;4.83;71.03;101479.34;4902411;29;20005;-92
2022/01/17 11:02:08;;;;;;;16.27;9.57;;;;;;;4.98;70.36;101450.44;4925131;29;20032;-91
2022/01/17 11:04:37;;;;;;;17.13;10.32;;;;;;;4.81;70.68;101438.59;4908836;29;20059;-93
2022/01/17 11:11:13;;;;;;;17.83;10.55;;;;;;;4.69;71.27;101428.97;4926861;29;20043;-93
2022/01/17 11:13:44;;;;;;;20.60;11.20;;;;;;;4.79;70.81;101410.00;4919848;29;20497;-94
2022/01/17 11:16:21;;;;;;;20.60;10.45;;;;;;;4.61;71.65;101403.19;4898140;29;20035;-92
2022/01/17 11:22:09;;;;;;;19.63;11.02;;;;;;;4.19;71.87;101302.97;4934085;29;20066;-91
2022/01/17 11:24:37;;;;;;;20.60;11.68;;;;;;;4.66;71.81;101386.44;4897181;29;20478;-93
2022/01/17 11:27:04;;;;;;;22.52;10.90;;;;;;;4.85;71.35;101395.00;4888471;29;20112;-89
2022/01/17 11:29:53;;;;;;;18.27;11.35;;;;;;;5.06;70.53;101389.88;4907533;29;20036;-90
2022/01/17 11:32:29;;;;;;;18.60;10.93;;;;;;;4.82;70.98;101375.72;4893323;29;20107;-91
2022/01/17 11:34:58;;;;;;;19.92;11.60;;;;;;;4.31;71.28;101298.88;4905838;29;20124;-91
2022/01/17 11:37:26;;;;;;;21.45;11.25;;;;;;;4.76;71.13;101368.31;4905173;29;20034;-91
2022/01/17 11:39:55;;;;;;;21.30;11.52;;;;;;;4.53;72.17;101358.59;4900469;29;20075;-93
2022/01/17 11:42:54;;;;;;;19.10;11.70;;;;;;;4.74;71.57;101393.19;4905400;29;20042;-92
2022/01/17 11:45:35;;;;;;;;;;;;;;;4.81;71.81;101397.19;4904173;29;20111;-92
2022/01/17 11:51:23;;;;;;;20.02;11.85;;;;;;;4.31;71.67;101331.59;4937638;29;20119;-93
2022/01/17 11:54:25;;;;;;;22.23;12.05;;;;;;;4.69;71.86;101408.28;4902376;29;20486;-91
2022/01/17 11:56:57;;;;;;;21.95;11.63;;;;;;;4.59;71.59;101350.44;4903284;29;20417;-91
2022/01/17 12:00:02;;;;;;;21.83;12.48;;;;;;;4.80;71.55;101383.31;4903425;29;20036;-90
2022/01/17 12:02:43;;;;;;;20.17;11.55;;;;;;;4.78;71.33;101360.69;4919630;29;20036;-89
2022/01/17 12:05:11;;;;;;;21.95;12.13;;;;;;;4.85;71.07;101371.72;4901417;29;20047;-88
2022/01/17 12:07:40;;;;;;;18.80;11.63;;;;;;;5.00;71.09;101372.13;4902900;29;20486;-86
2022/01/17 12:10:18;;;;;;;20.58;11.90;;;;;;;4.89;71.03;101380.66;4919170;29;20032;-88
2022/01/17 12:13:17;;;;;;;20.05;12.25;;;;;;;4.95;71.12;101395.78;4936254;29;20051;-89
2022/01/17 12:19:03;;;;;;;21.88;12.32;;;;;;;4.77;71.48;101362.38;4909346;29;20072;-89
2022/01/17 12:21:30;;;;;;;21.10;12.65;;;;;;;5.26;70.03;101371.75;4912068;29;20449;-88
2022/01/17 12:24:25;;;;;;;19.10;11.65;;;;;;;5.05;70.96;101370.81;4904146;29;20032;-89
2022/01/17 12:27:18;;;;;;;21.30;12.55;;;;;;;5.12;70.59;101371.34;4919958;29;20039;-89
2022/01/17 12:30:12;;;;;;;22.10;12.68;;;;;;;4.96;70.97;101363.97;4903669;29;20071;-89
2022/01/17 12:32:39;;;;;;;21.25;11.80;;;;;;;5.15;70.61;101358.69;4886650;29;20040;-89
2022/01/17 12:35:07;;;;;;;22.90;12.88;;;;;;;5.07;71.01;101350.25;4925943;29;20035;-90
2022/01/17 12:38:04;;;;;;;20.48;12.40;;;;;;;5.35;70.33;101345.72;4919709;29;20047;-90
2022/01/17 12:41:22;;;;;;;26.20;12.93;;;;;;;5.27;70.05;101328.63;4904204;29;20043;-89
2022/01/17 12:43:47;;;;;;;20.45;12.07;;;;;;;5.32;70.36;101323.88;4900705;29;20559;-90
2022/01/17 12:46:17;;;;;;;22.97;12.83;;;;;;;5.25;70.30;101341.47;4917914;29;20039;-91
2022/01/17 12:52:16;;;;;;;21.50;12.43;;;;;;;5.55;69.07;101318.91;4926683;29;20135;-91
2022/01/17 12:57:45;;;;;;;23.65;12.80;;;;;;;5.39;69.91;101303.75;4917985;29;19922;-93
2022/01/17 13:06:54;;;;;;;21.27;11.98;;;;;;;5.40;70.14;101292.66;4917275;29;20520;-93
2022/01/17 13:09:40;;;;;;;20.13;12.00;;;;;;;5.70;69.03;101281.28;4917117;29;20036;-94
2022/01/17 13:15:56;;;;;;;22.30;12.50;;;;;;;5.24;70.37;101272.31;4934793;29;20246;-93
2022/01/17 13:18:35;;;;;;;22.52;12.18;;;;;;;5.23;69.64;101217.84;4918696;29;20039;-90
2022/01/17 13:21:02;;;;;;;21.25;12.13;;;;;;;5.30;70.03;101248.63;4896567;29;20100;-90
2022/01/17 13:24:12;;;;;;;21.10;12.27;;;;;;;5.61;69.49;101248.53;4899390;29;20046;-91